Pagrindinis puslapis
METAR-TAF:

METAR-TAF

Oro uostai :

Jekaterinburgas, Rusija

platuma: 56-50N, ilguma: 060-38E, Aukštis: 237 m

Dabartinis oras

Ataskaita buvo paskelbta 18 minutes, ne 22:00 UTC
Vėjas 4 kt iš Šiaurės Rytų
Temperatūra 12°C
Drėgmė 88%
Slėgis 1013 hPa
Matomumas 10 km arba daugiau
nėra debesų žemiau 1500 m ir nėra kamuolinių lietaus debesų

METAR: USSS 302200Z 05002MPS CAVOK 12/10 Q1013 R26R/010060 NOSIG RMK QFE739/0986

Laikas: 03:18 (22:18 UTC)

Prognozė

Ataskaita buvo paskelbta 2 valandos ir 24 minutes, ne 19:54 UTC
Prognozė galioja nuo 30 metu 21 UTC su 31 metu 21 UTC
Vėjas 6 kt iš Šiaurės/Šiaurės Rytų su gūsio iki 16 kt
Matomumas: 3100 m
Išsisklaidę debesys ne aukštis 1100 ft
rūkana
Nuo 31 metu 0500 UTC
Vėjas 6 kt iš Šiaurės Rytų su gūsio iki 25 kt
Matomumas 10 km arba daugiau
Su prošvaistėmis ne aukštis 3000 ft, Liūtiniai kamuoliniai debesys.

TAF: USSS 301954Z 3021/3121 02003G08MPS 3100 BR SCT011 FM310500 05003G13MPS 9999 BKN030CB

Orai ataskaitas ir orų prognozės (METAR, TAF).

turimą stotys yra geltonos ir raudonos taškus žemėlapyje.

Perkelti pele per norėdami pamatyti stoties vardą.

Tada spustelėkite, norėdami matyti oro stebėjimo ir prognozės.

Norėdami pakeisti žemėlapį: spustelėkite ant žalios mygtukų su juodo kryžiaus žemyn,; žalią mygtuką su brūkšneliu, jei norite nutolinti; arba žalių rodyklių gretimoms žemėlapius.


METAR-TAF: